VHHHROAH

Guest
Details From VHHH - Hong Kong Intl
To ROAH - Naha
Flight Number -
Tags Generated
Created
Modified
Stats Distance 788 nm / 1,460 km
Max Altitude 0 ft / 0 m
Waypoints 3
Social Downloads 1
Likes 0
Share VATSIM

Download

Looking for another format? Having issues loading an existing format? Contact us
Advertisement - Login to hide

Notes

Generated

Route

VHHH NHC ROAH

ID Type Via Altitude Latitude Longitude Leg Dist Tot Dist Heading (true) Name
O VHHH APT - 0 ft / 0 m 22.29628˚ 113.89799˚ - 0 nm - -
NHC VOR - 0 ft / 0 m 26.20853˚ 127.64287˚ 787 nm 787 nm 70° / 76° NAHA VORTAC
O ROAH APT - 0 ft / 0 m 26.20934˚ 127.64523˚ 0 nm 788 nm 69° / 69° -

Altitude Profile

Advertisement - Login to hide

Weather


0- 5 10 15 20 25 30 35+ Temperature / ° C

Clouds and Precipitation
Forecast for 2017-12-14 00:00 UTC. Updated an hour ago

Ground ~20,000 ft ~40,000 ft Winds

VHHH

Details ICAO VHHH (HKG)
Name Hong Kong Intl
Region Hong Kong
Timezone Unknown (UTC+0.0)
Stats Elevation 28 ft / 9 m (AMSL)
Location 22.308995° 113.914610°
Runways 2
Magnetic Variation 2.822° W

METAR

VHHH 132230Z 09009KT 9999 FEW022 SCT030 19/14 Q1018 NOSIG

Decode

TAF

TAF VHHH 131700Z 1318/1424 06010KT 9999 FEW020 SCT035 TX22/1407Z TN19/1323Z TN18/1423Z TEMPO 1318/1324 09015G25KT

Decode

Departure Runways

ID Width Length Bearing (true) Bearing (mag) Surface Threshold Offset Overrun Length
07L 197 ft / 60 m 12,457 ft / 3,797 m 70.79° 73.61° Asphalt 564 ft / 172 m 866 ft / 264 m
07R 197 ft / 60 m 12,458 ft / 3,797 m 70.79° 73.61° Asphalt 525 ft / 160 m 886 ft / 270 m
25L 197 ft / 60 m 12,458 ft / 3,797 m 250.80° 253.62° Asphalt 0 ft / 0 m 840 ft / 256 m
25R 197 ft / 60 m 12,457 ft / 3,797 m 250.80° 253.62° Asphalt 581 ft / 177 m 860 ft / 262 m

ROAH

Details ICAO ROAH (OKA)
Name NAHA
Region Japan
Timezone Asia/Tokyo (UTC+9.0)
Stats Elevation 12 ft / 4 m (AMSL)
Location 26.195815° 127.645868°
Runways 1
Magnetic Variation 5.229° W

METAR

ROAH 132230Z 05010KT 9999 FEW040 BKN050 17/07 Q1021 RMK 1SC040 6SC050 A3016

Decode

TAF

TAF ROAH 131705Z 1318/1500 04011KT 9999 FEW035 BKN045

Decode

Destination Runways

ID Width Length Bearing (true) Bearing (mag) Surface Threshold Offset Overrun Length
18 150 ft / 46 m 9,881 ft / 3,012 m 177.59° 182.82° Asphalt 138 ft / 42 m 640 ft / 195 m
36 150 ft / 46 m 9,881 ft / 3,012 m 357.59° 2.82° Asphalt 0 ft / 0 m 509 ft / 155 m

Approach Navaids

Runway Type Ident Frequency Range Bearing (true) Bearing (mag) Slope Elevation
36 Localiser IOK 110.30 MHz 18 nm / 33 km 356.78° 2.01° - 52 ft / 16 m (AMSL)
36 Glidescope IOK 110.30 MHz 10 nm / 19 km 357.59° 2.82° 2.75° 52 ft / 16 m (AMSL)
36 DME IOK 110.30 MHz 18 nm / 33 km - - - 31 ft / 9 m (AMSL)

Popular Alternatives